Tiempo atmosférico en la estación meteorológica de Villarrasa, Huelva (145 m.)



Fecha
DESCASC
Temp. máxima en grados centígrados (hora)
DESCASC
Temp. mínima en grados centígrados (hora)
DESCASC
Temp. media en grados centígrados
DESCASC
Racha de viento máxima en m/sg (hora)
DESCASC
Velocidad máxima media en intervalos de 10 minutos(hora)
DESCASC
Precipitaciones diarias en mm
DESCASC
Precipitaciones de 00:00 a 06:00 en mm
DESCASC
Precipitaciones de 06:00 a 12:00 en mm
DESCASC
Precipitaciones de 12:00 a 18:00 en mm
DESCASC
Precipitaciones de 18:00 a 24:00 en mm
DESCASC
26-11-2020 11.8 (13:50) 9.1 (23:40) 10.5 8.61 (09:20) 4.44 (09:20) 10 1.6 5.2 3.2 0
25-11-2020 13.9 (16:30) 6.9 (04:00) 10.4 10 (10:50) 4.72 (21:20) 26 0 13.2 1.4 11.4
24-11-2020 17.7 (13:40) 6.9 (00:40) 12.3 5.28 (13:20) 2.78 (13:40) 0 0 0 0 0
23-11-2020 19.6 (16:30) 5.8 (08:20) 12.7 5.28 (11:10) 2.78 (11:10) 0 0 0 0 0
22-11-2020 19.8 (15:30) 9 (00:00) 14.4 8.06 (15:30) 3.89 (14:50) 0 0 0 0 0
21-11-2020 21.7 (15:10) 10.3 (00:00) 16 6.94 (15:20) 3.89 (15:20) 0 0 0 0 0
20-11-2020 24.5 (15:30) 10.1 (00:00) 17.3 8.06 (13:10) 4.17 (13:10) 0 0 0 0 0
19-11-2020 25.3 (15:10) 10.6 (00:00) 17.9 6.67 (11:10) 3.61 (14:10) 0 0 0 0 0
18-11-2020 24.6 (16:00) 12.7 (00:00) 18.7 5.83 (12:30) 3.33 (13:20) 0 0 0 0 0
17-11-2020 23.1 (16:10) 11.7 (00:00) 17.4 6.11 (12:00) 3.06 (12:10) 0 0 0 0 0
16-11-2020 23.5 (15:50) 12.2 (00:00) 17.8 4.17 (18:10) 2.78 (18:00) 0 0 0 0 0
15-11-2020 24.3 (15:10) 13.8 (00:00) 19 6.39 (09:40) 2.78 (16:30) 0.2 0 0.2 0 0
14-11-2020 20.4 (15:50) 15.9 (00:00) 18.1 5.83 (12:30) 3.06 (13:40) 8.6 5.2 1.8 0.8 0.8
13-11-2020 20.9 (14:50) 11.6 (00:00) 16.3 6.11 (13:30) 3.06 (12:40) 0.4 0 0 0 0.4
12-11-2020 21.3 (15:00) 11.9 (00:00) 16.6 7.78 (10:50) 3.61 (10:50) 0 0 0 0 0
11-11-2020 21.1 (14:50) 11.2 (00:00) 16.2 7.22 (11:50) 3.61 (11:00) 0 0 0 0 0
10-11-2020 22.4 (16:10) 10.1 (00:00) 16.3 6.67 (14:30) 3.61 (14:40) 0 0 0 0 0
09-11-2020 20.6 (16:50) 10.2 (00:00) 15.4 3.61 (16:20) 2.22 (16:20) 12 11.8 0.2 0 0
08-11-2020 20.7 (15:30) 12.1 (00:00) 16.4 6.67 (14:10) 3.33 (14:10) 0.4 0 0 0 0.4
07-11-2020 20.6 (15:40) 10.5 (00:00) 15.6 8.61 (14:30) 4.72 (14:50) 3.4 3.2 0 0 0.2
06-11-2020 21.1 (14:20) 13.2 (00:00) 17.2 20.28 (22:50) 7.22 (22:50) 8.6 0 0.2 0 8.4
05-11-2020 19.6 (17:00) 12.9 (00:00) 16.3 9.44 (14:50) 4.72 (14:50) 20.8 17.2 3.6 0 0
04-11-2020 17.2 (17:20) 11.3 (00:00) 14.3 8.61 (21:10) 3.06 (21:30) 8.8 0 0 0.6 8.2
03-11-2020 21.2 (15:10) 13.4 (00:00) 17.3 3.61 (10:40) 1.94 (22:10) 1 0 0.8 0.2 0
02-11-2020 28.4 (16:00) 12.3 (00:00) 20.3 6.39 (17:50) 3.89 (17:50) 0 0 0 0 0
01-11-2020 26.4 (16:30) 10.8 (00:00) 18.6 4.72 (17:20) 3.33 (17:20) 0 0 0 0 0
31-10-2020 27 (16:10) 10.3 (00:00) 18.7 4.72 (18:30) 2.78 (18:40) 0 0 0 0 0
30-10-2020 27.1 (16:00) 11.1 (00:00) 19.1 5.83 (10:30) 3.06 (11:20) 0 0 0 0 0
29-10-2020 27 (15:50) 12.7 (00:00) 19.8 8.33 (13:30) 4.17 (15:20) 0 0 0 0 0
28-10-2020 23.1 (15:10) 7.3 (00:00) 15.2 4.44 (15:50) 2.5 (12:50) 0 0 0 0 0

Gráficas

Temp. máximas Temp. mínimas Temp. medias Precipitaciones Rachas de viento máximas Velocidades máximas media en intervalos de 10 minutos

Datos horarios

Fecha y hora oficial Temperatura (ºC) Velocidad del viento (km/h) Dirección del viento Racha (km/h) Dirección de racha Precipitación (mm) Presión (hPa) Tendencia (hPa) Humedad (%)
2020-11-26 23:00:00 9.2 7 Este 16 Sudeste 0 -- -- 93
2020-11-26 22:00:00 9.6 6 Este 15 Este 0 -- -- 94
2020-11-26 21:00:00 9.5 8 Este 21 Este 0 -- -- 94
2020-11-26 20:00:00 9.4 6 Este 15 Este 0 -- -- 94
2020-11-26 19:00:00 9.7 3 Este 14 Sudeste 0 -- -- 93
2020-11-26 18:00:00 10.3 6 Este 15 Este 0 -- -- 92
2020-11-26 17:00:00 11 5 Sudeste 10 Sudeste 0.4 -- -- 94
2020-11-26 16:00:00 10.6 0 Calma 15 Este 2.2 -- -- 92
2020-11-26 15:00:00 11.6 5 Este 22 Sudeste 0 -- -- 92
2020-11-26 14:00:00 11.8 8 Este 23 Este 0 -- -- 95
2020-11-26 13:00:00 11.3 11 Este 25 Este 0.6 -- -- 96
2020-11-26 12:00:00 11 10 Este 30 Sur 0.8 -- -- 97
2020-11-26 11:00:00 10.9 11 Sudeste 25 Este 1 -- -- 97
2020-11-26 10:00:00 10.8 10 Sudeste 31 Este 1.4 -- -- 97
2020-11-26 09:00:00 11 6 Este 26 Este 1 -- -- 97
2020-11-26 08:00:00 11 13 Este 30 Sudeste 0.2 -- -- 96
2020-11-26 07:00:00 10.8 11 Este 26 Este 0.8 -- -- 96
2020-11-26 06:00:00 10.7 13 Este 26 Este 0.8 -- -- 96
2020-11-26 05:00:00 10.5 12 Este 28 Este 0.8 -- -- 96
2020-11-26 04:00:00 10.3 11 Este 26 Este 0 -- -- 95
2020-11-26 03:00:00 10.2 8 Este 20 Sudeste 0 -- -- 96
2020-11-26 02:00:00 10.3 6 Nordeste 22 Este 0 -- -- 97
2020-11-26 01:00:00 10.5 7 Este 23 Este 0 -- -- 97
2020-11-26 00:00:00 10.4 10 Este 20 Este 0.4 -- -- 97
2020-11-25 23:00:00 10.6 4 Sudeste 12 Sudeste 0.2 -- -- 96
2020-11-25 22:00:00 11.1 3 Sudoeste 32 Oeste 4.6 -- -- 96
2020-11-25 21:00:00 12.4 16 Sudeste 30 Sudeste 4.4 -- -- 96
2020-11-25 20:00:00 12.3 13 Sudeste 27 Sudeste 1.8 -- -- 96
2020-11-25 19:00:00 13.1 13 Sudeste 26 Sudeste 0 -- -- 95
2020-11-25 18:00:00 13.7 9 Sudeste 24 Sudeste 0 -- -- 96
2020-11-25 17:00:00 13.5 10 Sudeste 22 Sudeste 0 -- -- 96
2020-11-25 16:00:00 13.5 9 Sudeste 27 Sudeste 1.2 -- -- 96
2020-11-25 15:00:00 12.9 12 Sudeste 22 Sudeste 0.2 -- -- 96
2020-11-25 14:00:00 12.7 14 Sudeste 26 Sudeste 0 -- -- 95
2020-11-25 13:00:00 12.8 8 Este 16 Este 0 -- -- 96
2020-11-25 12:00:00 11.5 3 Norte 9 Nordeste 4 -- -- 95
2020-11-25 11:00:00 11.8 3 Noroeste 36 Oeste 9.2 -- -- 94
2020-11-25 10:00:00 12.2 10 Este 21 Este 0 -- -- 92
2020-11-25 09:00:00 11.2 8 Este 18 Este 0 -- -- 92
2020-11-25 08:00:00 11.1 6 Este 15 Este 0 -- -- 93
2020-11-25 07:00:00 10.6 4 Nordeste 12 Este 0 -- -- 96
2020-11-25 06:00:00 9.2 5 Nordeste 9 Nordeste 0 -- -- 97
2020-11-25 05:00:00 8.1 3 Nordeste 7 Norte 0 -- -- 95
2020-11-25 04:00:00 6.9 4 Norte 5 Norte 0 -- -- 94
2020-11-25 03:00:00 7.5 3 Norte 5 Norte 0 -- -- 93
2020-11-25 02:00:00 8.7 3 Norte 5 Sudoeste 0 -- -- 92
2020-11-25 01:00:00 9.4 0 Calma 4 Noroeste 0 -- -- 92
2020-11-25 00:00:00 9.8 2 Norte 3 Norte 0 -- -- 89
2020-11-24 23:00:00 11.2 -- -- -- -- 0 -- -- 86
2020-11-24 22:00:00 12.1 3 Norte 8 Nordeste 0 -- -- 84
2020-11-24 21:00:00 12.5 4 Norte 6 Norte 0 -- -- 81
2020-11-24 20:00:00 13.9 5 Nordeste 9 Norte 0 -- -- 74
2020-11-24 19:00:00 14.7 5 Nordeste 9 Nordeste 0 -- -- 71
2020-11-24 18:00:00 15.6 2 Nordeste 10 Este 0 -- -- 68
2020-11-24 17:00:00 16.5 5 Este 12 Sudeste 0 -- -- 66
2020-11-24 16:00:00 17 3 Este 14 Este 0 -- -- 64
2020-11-24 15:00:00 16.5 8 Este 17 Este 0 -- -- 64
2020-11-24 14:00:00 17.2 7 Este 19 Sudeste 0 -- -- 61
2020-11-24 13:00:00 16.5 8 Este 17 Sudeste 0 -- -- 62
2020-11-24 12:00:00 15 7 Nordeste 14 Este 0 -- -- 66
2020-11-24 11:00:00 13.2 5 Nordeste 14 Nordeste 0 -- -- 73
2020-11-24 10:00:00 11.3 6 Este 12 Este 0 -- -- 76
2020-11-24 09:00:00 8.3 7 Nordeste 12 Nordeste 0 -- -- 85
2020-11-24 08:00:00 8.3 8 Nordeste 12 Nordeste 0 -- -- 83
2020-11-24 07:00:00 7.2 6 Nordeste 13 Nordeste 0 -- -- 87
2020-11-24 06:00:00 8.3 7 Nordeste 11 Nordeste 0 -- -- 84
2020-11-24 05:00:00 8.4 7 Nordeste 12 Nordeste 0 -- -- 83
2020-11-24 04:00:00 7.8 6 Nordeste 10 Nordeste 0 -- -- 85
2020-11-24 03:00:00 8.6 8 Nordeste 11 Nordeste 0 -- -- 83
2020-11-24 02:00:00 9.2 7 Nordeste 11 Nordeste 0 -- -- 82
2020-11-24 01:00:00 7 6 Nordeste 8 Norte 0 -- -- 91
2020-11-24 00:00:00 7.5 6 Norte 10 Nordeste 0 -- -- 87
2020-11-23 23:00:00 8.9 5 Sudeste 10 Norte 0 -- -- 85
2020-11-23 22:00:00 8.1 7 Norte 10 Norte 0 -- -- 87
2020-11-23 21:00:00 8.4 4 Nordeste 7 Nordeste 0 -- -- 85
2020-11-23 20:00:00 9.4 5 Nordeste 7 Nordeste 0 -- -- 81
2020-11-23 19:00:00 11.9 3 Nordeste 5 Sudeste 0 -- -- 70
2020-11-23 18:00:00 18 3 Sudeste 8 Sudeste 0 -- -- 51
2020-11-23 17:00:00 19.5 3 Sudeste 12 Este 0 -- -- 45
2020-11-23 16:00:00 19.4 7 Sudeste 15 Sudeste 0 -- -- 47
2020-11-23 15:00:00 19 9 Sudeste 14 Sudeste 0 -- -- 49
2020-11-23 14:00:00 18.3 6 Este 19 Sudeste 0 -- -- 50
2020-11-23 13:00:00 17.7 9 Sudeste 19 Sudeste 0 -- -- 56
2020-11-23 12:00:00 15.8 8 Este 19 Este 0 -- -- 65
2020-11-23 11:00:00 14.4 8 Este 18 Este 0 -- -- 69
2020-11-23 10:00:00 11.2 8 Nordeste 17 Nordeste 0 -- -- 80
2020-11-23 09:00:00 6 0 Calma 7 Nordeste 0 -- -- 92
2020-11-23 08:00:00 6.1 4 Nordeste 7 Nordeste 0 -- -- 90
2020-11-23 07:00:00 7.2 5 Norte 8 Nordeste 0 -- -- 87
2020-11-23 06:00:00 8.2 5 Norte 11 Nordeste 0 -- -- 82
2020-11-23 05:00:00 9.3 8 Norte 12 Norte 0 -- -- 78
2020-11-23 04:00:00 9.4 6 Nordeste 10 Norte 0 -- -- 75
2020-11-23 03:00:00 9.8 7 Norte 10 Nordeste 0 -- -- 74
2020-11-23 02:00:00 9.6 6 Norte 9 Nordeste 0 -- -- 74
2020-11-23 01:00:00 10.1 6 Norte 9 Norte 0 -- -- 72
2020-11-23 00:00:00 10.8 6 Norte 9 Norte 0 -- -- 69
2020-11-22 23:00:00 11.6 7 Norte 10 Norte 0 -- -- 67
2020-11-22 22:00:00 10.9 7 Norte 9 Norte 0 -- -- 70
2020-11-22 21:00:00 11.8 6 Norte 8 Norte 0 -- -- 67
2020-11-22 20:00:00 11.9 5 Norte 8 Norte 0 -- -- 68
2020-11-22 19:00:00 14.7 4 Norte 9 Nordeste 0 -- -- 61
2020-11-22 18:00:00 17.6 4 Nordeste 21 Este 0 -- -- 52
2020-11-22 17:00:00 19.3 8 Este 27 Este 0 -- -- 51
2020-11-22 16:00:00 19.8 10 Este 29 Este 0 -- -- 51
2020-11-22 15:00:00 19.4 13 Este 28 Este 0 -- -- 52
2020-11-22 14:00:00 19.2 9 Nordeste 25 Nordeste 0 -- -- 54
2020-11-22 13:00:00 18.2 10 Nordeste 27 Este 0 -- -- 58
2020-11-22 12:00:00 17 10 Nordeste 24 Nordeste 0 -- -- 62
2020-11-22 11:00:00 15.6 9 Nordeste 21 Nordeste 0 -- -- 68
2020-11-22 10:00:00 13.7 8 Nordeste 20 Este 0 -- -- 74
2020-11-22 09:00:00 11 5 Norte 10 Nordeste 0 -- -- 86
2020-11-22 08:00:00 10.5 5 Norte 8 Norte 0 -- -- 88
2020-11-22 07:00:00 11.1 4 Norte 10 Nordeste 0 -- -- 87
2020-11-22 06:00:00 11.3 6 Norte 11 Nordeste 0 -- -- 86
2020-11-22 05:00:00 11.1 7 Nordeste 11 Nordeste 0 -- -- 91
2020-11-22 04:00:00 9.1 4 Norte 7 Nordeste 0 -- -- 90
2020-11-22 03:00:00 11.1 5 Nordeste 9 Norte 0 -- -- 87
2020-11-22 02:00:00 11.1 5 Norte 9 Norte 0 -- -- 86
2020-11-22 01:00:00 11.9 5 Norte 8 Nordeste 0 -- -- 82
2020-11-22 00:00:00 11.5 6 Nordeste 9 Nordeste 0 -- -- 84
2020-11-21 23:00:00 13.3 4 Nordeste 10 Nordeste 0 -- -- 77
2020-11-21 22:00:00 13.4 4 Nordeste 10 Nordeste 0 -- -- 79
2020-11-21 21:00:00 13.4 5 Nordeste 12 Este 0 -- -- 81
2020-11-21 20:00:00 14.3 8 Nordeste 11 Nordeste 0 -- -- 79
2020-11-21 19:00:00 14.7 4 Nordeste 5 Nordeste 0 -- -- 74
2020-11-21 18:00:00 19.7 3 Este 12 Sudeste 0 -- -- 58
2020-11-21 17:00:00 21.2 6 Sudeste 22 Sudeste 0 -- -- 52
2020-11-21 16:00:00 21.6 11 Este 25 Este 0 -- -- 53
2020-11-21 15:00:00 21.6 13 Sudeste 24 Sudeste 0 -- -- 54
2020-11-21 14:00:00 21.3 12 Sudeste 24 Sudeste 0 -- -- 55
2020-11-21 13:00:00 20.2 7 Nordeste 14 Este 0 -- -- 58
2020-11-21 12:00:00 18.7 7 Este 21 Este 0 -- -- 63
2020-11-21 11:00:00 17.1 11 Este 22 Nordeste 0 -- -- 65
2020-11-21 10:00:00 15 9 Nordeste 19 Este 0 -- -- 70
2020-11-21 09:00:00 12.4 5 Norte 13 Nordeste 0 -- -- 75
2020-11-21 08:00:00 12 6 Nordeste 12 Nordeste 0 -- -- 77
2020-11-21 07:00:00 12.1 7 Nordeste 15 Nordeste 0 -- -- 76
2020-11-21 06:00:00 11.4 4 Este 11 Nordeste 0 -- -- 59
2020-11-21 05:00:00 12.6 4 Nordeste 12 Nordeste 0 -- -- 49
2020-11-21 04:00:00 12.9 6 Nordeste 13 Este 0 -- -- 48
2020-11-21 03:00:00 12.3 5 Nordeste 13 Nordeste 0 -- -- 53
2020-11-21 02:00:00 12.8 8 Nordeste 13 Norte 0 -- -- 51
2020-11-21 01:00:00 10.6 5 Nordeste 8 Nordeste 0 -- -- 65
2020-11-21 00:00:00 14 5 Norte 10 Norte 0 -- -- 50
2020-11-20 23:00:00 16.2 6 Norte 14 Norte 0 -- -- 48
2020-11-20 22:00:00 15.3 6 Norte 13 Norte 0 -- -- 62
2020-11-20 21:00:00 15.6 6 Norte 10 Norte 0 -- -- 72
2020-11-20 20:00:00 14.4 7 Norte 9 Norte 0 -- -- 78
2020-11-20 19:00:00 17 3 Norte 8 Nordeste 0 -- -- 66
2020-11-20 18:00:00 21.7 4 Nordeste 23 Este 0 -- -- 50
2020-11-20 17:00:00 23.8 10 Este 21 Sudeste 0 -- -- 43
2020-11-20 16:00:00 24.2 9 Este 21 Sudeste 0 -- -- 47
2020-11-20 15:00:00 24.2 9 Este 25 Este 0 -- -- 47
2020-11-20 14:00:00 23.4 13 Este 29 Este 0 -- -- 48
2020-11-20 13:00:00 22.3 13 Este 28 Nordeste 0 -- -- 52
2020-11-20 12:00:00 21.4 11 Este 26 Nordeste 0 -- -- 56
2020-11-20 11:00:00 19.5 5 Este 15 Este 0 -- -- 67
2020-11-20 10:00:00 16.4 5 Nordeste 12 Nordeste 0 -- -- 72
2020-11-20 09:00:00 11.9 4 Nordeste 8 Nordeste 0 -- -- 90
2020-11-20 08:00:00 10.7 3 Nordeste 9 Nordeste 0 -- -- 91
2020-11-20 07:00:00 10.2 3 Nordeste 5 Nordeste 0 -- -- 94
2020-11-20 06:00:00 10.7 3 Nordeste 7 Nordeste 0 -- -- 94
2020-11-20 05:00:00 10.7 3 Norte 7 Norte 0 -- -- 92
2020-11-20 04:00:00 11.1 4 Norte 8 Nordeste 0 -- -- 90
2020-11-20 03:00:00 10.6 3 Nordeste 5 Norte 0 -- -- 93
2020-11-20 02:00:00 11.1 3 Nordeste 5 Nordeste 0 -- -- 91
2020-11-20 01:00:00 11.8 0 Calma 5 Noroeste 0 -- -- 88
2020-11-20 00:00:00 12.5 0 Calma 5 Noroeste 0 -- -- 86
2020-11-19 23:00:00 13.1 2 Noroeste 6 Nordeste 0 -- -- 86
2020-11-19 22:00:00 14.4 5 Nordeste 8 Nordeste 0 -- -- 83
2020-11-19 21:00:00 14.1 5 Norte 8 Norte 0 -- -- 85
2020-11-19 20:00:00 15.2 3 Norte 7 Norte 0 -- -- 81
2020-11-19 19:00:00 17.5 3 Norte 5 Sur 0 -- -- 71
2020-11-19 18:00:00 22.9 3 Sur 9 Este 0 -- -- 57
2020-11-19 17:00:00 24.7 4 Este 15 Este 0 -- -- 47
2020-11-19 16:00:00 25.2 9 Este 22 Este 0 -- -- 43
2020-11-19 15:00:00 25.2 10 Este 22 Este 0 -- -- 44
2020-11-19 14:00:00 24.4 11 Este 21 Este 0 -- -- 48
2020-11-19 13:00:00 22.7 10 Este 22 Este 0 -- -- 52
2020-11-19 12:00:00 21.3 11 Este 24 Este 0 -- -- 56
2020-11-19 11:00:00 19.8 11 Este 22 Este 0 -- -- 60
2020-11-19 10:00:00 15.5 0 Calma 6 Este 0 -- -- 88
2020-11-19 09:00:00 11.2 3 Noroeste 4 Nordeste 0 -- -- 95
2020-11-19 08:00:00 10.7 0 Calma 6 Nordeste 0 -- -- 94
2020-11-19 07:00:00 11.8 4 Norte 9 Nordeste 0 -- -- 94
2020-11-19 06:00:00 10.7 4 Norte 12 Nordeste 0 -- -- 95
2020-11-19 05:00:00 10.8 5 Norte 7 Nordeste 0 -- -- 94
2020-11-19 04:00:00 11.4 0 Calma 3 Oeste 0 -- -- 93
2020-11-19 03:00:00 12.6 3 Noroeste 8 Norte 0 -- -- 90
2020-11-19 02:00:00 14.3 6 Nordeste 9 Nordeste 0 -- -- 88
2020-11-19 01:00:00 13 6 Nordeste 8 Norte 0 -- -- 91
2020-11-19 00:00:00 14.7 7 Nordeste 10 Nordeste 0 -- -- 89
2020-11-18 23:00:00 13.1 6 Nordeste 9 Nordeste 0 -- -- 90
2020-11-18 22:00:00 13.8 8 Nordeste 11 Nordeste 0 -- -- 90
2020-11-18 21:00:00 14.2 5 Nordeste 8 Este 0 -- -- 86
2020-11-18 20:00:00 15.1 3 Norte 5 Norte 0 -- -- 83
2020-11-18 19:00:00 17.7 2 Noroeste 6 Noroeste 0 -- -- 76
2020-11-18 18:00:00 21.5 5 Este 9 Este 0 -- -- 60
2020-11-18 17:00:00 23.9 6 Sudeste 14 Sur 0 -- -- 54
2020-11-18 16:00:00 24.6 7 Este 17 Sudeste 0 -- -- 54
2020-11-18 15:00:00 24.3 9 Este 21 Este 0 -- -- 55
2020-11-18 14:00:00 23.5 10 Este 21 Sudeste 0 -- -- 60
2020-11-18 13:00:00 22.9 8 Este 21 Sudeste 0 -- -- 63
2020-11-18 12:00:00 21.7 7 Este 19 Este 0 -- -- 68
2020-11-18 11:00:00 19.2 9 Nordeste 18 Nordeste 0 -- -- 76
2020-11-18 10:00:00 16.8 9 Nordeste 17 Nordeste 0 -- -- 84
2020-11-18 09:00:00 14 5 Nordeste 12 Nordeste 0 -- -- 93
2020-11-18 08:00:00 13.8 8 Nordeste 12 Nordeste 0 -- -- 93
2020-11-18 07:00:00 13.4 6 Norte 8 Norte 0 -- -- 93
2020-11-18 06:00:00 14.1 6 Nordeste 10 Nordeste 0 -- -- 91
2020-11-18 05:00:00 14.5 8 Nordeste 12 Nordeste 0 -- -- 90
2020-11-18 04:00:00 14.3 8 Nordeste 12 Norte 0 -- -- 91
2020-11-18 03:00:00 14.7 8 Nordeste 12 Nordeste 0 -- -- 90
2020-11-18 02:00:00 14.8 9 Nordeste 12 Norte 0 -- -- 91
2020-11-18 01:00:00 13.7 8 Norte 10 Norte 0 -- -- 95
2020-11-18 00:00:00 13.9 6 Norte 10 Norte 0 -- -- 92
2020-11-17 23:00:00 14.8 7 Norte 10 Norte 0 -- -- 94
2020-11-17 22:00:00 14 6 Norte 10 Norte 0 -- -- 94
2020-11-17 21:00:00 14.2 5 Norte 6 Norte 0 -- -- 92
2020-11-17 20:00:00 15.2 4 Norte 6 Norte 0 -- -- 89
2020-11-17 19:00:00 17.5 -- -- -- -- 0 -- -- 83
2020-11-17 18:00:00 21.5 2 Sudoeste 6 Sur 0 -- -- 71
2020-11-17 17:00:00 22.7 4 Sur 9 Sudoeste 0 -- -- 66
2020-11-17 16:00:00 23 5 Sudeste 15 Sur 0 -- -- 65
2020-11-17 15:00:00 22.9 8 Sudeste 18 Sudeste 0 -- -- 64
2020-11-17 14:00:00 22.1 8 Sudeste 15 Sur 0 -- -- 68
2020-11-17 13:00:00 21.1 9 Este 20 Este 0 -- -- 77
2020-11-17 12:00:00 20.2 10 Este 22 Este 0 -- -- 82
2020-11-17 11:00:00 18.2 8 Este 15 Este 0 -- -- 97
2020-11-17 10:00:00 15.8 7 Nordeste 14 Nordeste 0 -- -- 98
2020-11-17 09:00:00 13.8 3 Nordeste 9 Nordeste 0 -- -- 97
2020-11-17 08:00:00 13 4 Nordeste 8 Nordeste 0 -- -- 97
2020-11-17 07:00:00 12 3 Nordeste 6 Nordeste 0 -- -- 97
2020-11-17 06:00:00 12.1 4 Nordeste 6 Nordeste 0 -- -- 96
2020-11-17 05:00:00 13.1 3 Nordeste 7 Norte 0 -- -- 96
2020-11-17 04:00:00 13.1 3 Norte 9 Nordeste 0 -- -- 96
2020-11-17 03:00:00 13.3 6 Norte 9 Norte 0 -- -- 97
2020-11-17 02:00:00 13.5 3 Norte 6 Nordeste 0 -- -- 96
2020-11-17 01:00:00 13.6 0 Calma 4 Nordeste 0 -- -- 95
2020-11-17 00:00:00 13.8 3 Sudeste 6 Sudeste 0 -- -- 95
2020-11-16 23:00:00 14.1 0 Calma 5 Nordeste 0 -- -- 93
2020-11-16 22:00:00 15.3 0 Calma 8 Norte 0 -- -- 92
2020-11-16 21:00:00 16.9 2 Oeste 8 Sudoeste 0 -- -- 90
2020-11-16 20:00:00 17.9 0 Calma 8 Oeste 0 -- -- 88
2020-11-16 19:00:00 19.3 4 Oeste 15 Oeste 0 -- -- 85
2020-11-16 18:00:00 21.5 10 Sudoeste 14 Oeste 0 -- -- 76
2020-11-16 17:00:00 23.2 5 Sudoeste 12 Sudoeste 0 -- -- 66
2020-11-16 16:00:00 23.4 8 Oeste 13 Oeste 0 -- -- 64
2020-11-16 15:00:00 22.8 2 Oeste 14 Sudeste 0 -- -- 68
2020-11-16 14:00:00 22.2 7 Sudeste 14 Sudeste 0 -- -- 70
2020-11-16 13:00:00 21.5 6 Sudeste 12 Sudeste 0 -- -- 74
2020-11-16 12:00:00 20.2 5 Este 11 Sudeste 0 -- -- 79
2020-11-16 11:00:00 18.9 3 Sudeste 8 Sur 0 -- -- 85
2020-11-16 10:00:00 16 3 Sudeste 6 Este 0 -- -- 97
2020-11-16 09:00:00 12.5 3 Norte 5 Norte 0 -- -- 97
2020-11-16 08:00:00 12.6 3 Noroeste 6 Norte 0 -- -- 96
2020-11-16 07:00:00 13.1 0 Calma 12 Norte 0 -- -- 95
2020-11-16 06:00:00 12.4 3 Norte 4 Norte 0 -- -- 96
2020-11-16 05:00:00 12.8 0 Calma 2 Norte 0 -- -- 95
2020-11-16 04:00:00 13.5 0 Calma 5 Noroeste 0 -- -- 95
2020-11-16 03:00:00 13.8 3 Norte 6 Noroeste 0 -- -- 95
2020-11-16 02:00:00 13.5 4 Noroeste 6 Norte 0 -- -- 95
2020-11-16 01:00:00 13.4 4 Norte 5 Norte 0 -- -- 94
2020-11-16 00:00:00 13.8 3 Norte 5 Norte 0 -- -- 94
2020-11-15 23:00:00 14.3 3 Norte 4 Norte 0 -- -- 92
2020-11-15 22:00:00 15 3 Norte 4 Norte 0 -- -- 91
2020-11-15 21:00:00 15.7 0 Calma 6 Sudeste 0 -- -- 88
2020-11-15 20:00:00 16.6 0 Calma 3 Sur 0 -- -- 84
2020-11-15 19:00:00 18.9 0 Calma 6 Sur 0 -- -- 76
2020-11-15 18:00:00 22.2 3 Sudoeste 15 Sur 0 -- -- 64
2020-11-15 17:00:00 23.6 7 Sur 20 Sur 0 -- -- 63
2020-11-15 16:00:00 24 9 Sur 18 Sur 0 -- -- 66
2020-11-15 15:00:00 24 8 Sudeste 18 Sur 0 -- -- 66
2020-11-15 14:00:00 23.1 6 Sur 18 Sudeste 0 -- -- 67
2020-11-15 13:00:00 22.4 8 Este 20 Sudeste 0 -- -- 70
2020-11-15 12:00:00 20.7 7 Este 18 Este 0 -- -- 80
2020-11-15 11:00:00 19 9 Este 19 Este 0 -- -- 88
2020-11-15 10:00:00 17.5 7 Este 23 Este 0 -- -- 96
2020-11-15 09:00:00 17 8 Este 16 Este 0 -- -- 97
2020-11-15 08:00:00 16.7 8 Este 21 Este 0.2 -- -- 97
2020-11-15 07:00:00 16.8 7 Este 16 Este 0 -- -- 97
2020-11-15 06:00:00 16.9 6 Este 16 Nordeste 0 -- -- 97
2020-11-15 05:00:00 17 6 Este 11 Nordeste 0 -- -- 97
2020-11-15 04:00:00 17.1 4 Este 13 Este 0 -- -- 97
2020-11-15 03:00:00 17.1 5 Sudeste 12 Este 0 -- -- 96
2020-11-15 02:00:00 17.6 6 Sudeste 13 Sudeste 0 -- -- 96
2020-11-15 01:00:00 17.9 3 Sudeste 7 Sudeste 0 -- -- 96
2020-11-15 00:00:00 17.9 0 Calma 5 Este 0 -- -- 95
2020-11-14 23:00:00 18.1 2 Sudeste 5 Sudeste 0 -- -- 95
2020-11-14 22:00:00 18.2 4 Sudoeste 7 Sudoeste 0 -- -- 95
2020-11-14 21:00:00 18.2 0 Calma 5 Sur 0 -- -- 95
2020-11-14 20:00:00 18.2 0 Calma 3 Este 0 -- -- 94
2020-11-14 19:00:00 18.2 0 Calma 13 Oeste 0.8 -- -- 93
2020-11-14 18:00:00 18.8 7 Oeste 15 Sudoeste 0.4 -- -- 89
2020-11-14 17:00:00 19.8 6 Sudoeste 17 Sudoeste 0 -- -- 83
2020-11-14 16:00:00 20.2 9 Sudoeste 21 Sudoeste 0 -- -- 80
2020-11-14 15:00:00 19.6 9 Sudoeste 19 Sur 0 -- -- 86
2020-11-14 14:00:00 18.3 9 Sur 21 Sur 0.4 -- -- 94
2020-11-14 13:00:00 18.4 9 Sur 21 Sur 0 -- -- 90
2020-11-14 12:00:00 18.7 9 Sur 16 Sur 0 -- -- 90
2020-11-14 11:00:00 17.5 4 Sur 9 Sur 0.2 -- -- 96
2020-11-14 10:00:00 16.3 3 Sudeste 6 Sudeste 0 -- -- 96
2020-11-14 09:00:00 16 4 Sudeste 10 Sudeste 0.8 -- -- 95
2020-11-14 08:00:00 15.9 0 Calma 3 Este 0.4 -- -- 95
2020-11-14 07:00:00 16 2 Sudoeste 8 Sudoeste 0.4 -- -- 95
2020-11-14 06:00:00 16.1 5 Oeste 13 Sudeste 0.4 -- -- 96
2020-11-14 05:00:00 16 6 Sudeste 13 Sudeste 4.6 -- -- 95
2020-11-14 04:00:00 16.3 6 Sudeste 13 Sudeste 0 -- -- 94
2020-11-14 03:00:00 16.5 5 Sudeste 13 Sudeste 0.2 -- -- 94
2020-11-14 02:00:00 16.8 4 Sudeste 12 Sudeste 0 -- -- 94
2020-11-14 01:00:00 17.1 5 Sudeste 12 Sudeste 0 -- -- 94
2020-11-14 00:00:00 17.2 4 Sur 9 Sudeste 0 -- -- 93
2020-11-13 23:00:00 17.2 2 Sudeste 6 Sudeste 0 -- -- 92
2020-11-13 22:00:00 17 2 Sudeste 11 Sudeste 0.2 -- -- 90
2020-11-13 21:00:00 17.3 3 Este 5 Sudeste 0.2 -- -- 87
2020-11-13 20:00:00 17.8 3 Sudeste 9 Sur 0 -- -- 79
2020-11-13 19:00:00 18.1 4 Sur 11 Sur 0 -- -- 79
2020-11-13 18:00:00 19.2 8 Sur 13 Sur 0 -- -- 73
2020-11-13 17:00:00 20 6 Sudeste 15 Sudeste 0 -- -- 72
2020-11-13 16:00:00 20.3 6 Sudeste 19 Sudeste 0 -- -- 70
2020-11-13 15:00:00 20.8 8 Sudeste 19 Sudeste 0 -- -- 69
2020-11-13 14:00:00 19.6 10 Sudeste 22 Sudeste 0 -- -- 71
2020-11-13 13:00:00 19.6 10 Sudeste 20 Este 0 -- -- 70
2020-11-13 12:00:00 17.6 9 Este 18 Este 0 -- -- 74
2020-11-13 11:00:00 16.5 8 Este 18 Este 0 -- -- 78
2020-11-13 10:00:00 15.2 8 Nordeste 15 Nordeste 0 -- -- 82
2020-11-13 09:00:00 14.3 5 Nordeste 13 Nordeste 0 -- -- 84
2020-11-13 08:00:00 13.6 6 Nordeste 11 Este 0 -- -- 84
2020-11-13 07:00:00 13.2 5 Nordeste 10 Nordeste 0 -- -- 85
2020-11-13 06:00:00 12.2 7 Norte 10 Nordeste 0 -- -- 91
2020-11-13 05:00:00 12.4 6 Nordeste 10 Nordeste 0 -- -- 87
2020-11-13 04:00:00 12.4 8 Nordeste 12 Nordeste 0 -- -- 87
2020-11-13 03:00:00 12.3 7 Nordeste 10 Nordeste 0 -- -- 86
2020-11-13 02:00:00 12.8 7 Nordeste 10 Nordeste 0 -- -- 84
2020-11-13 01:00:00 13.1 7 Nordeste 11 Nordeste 0 -- -- 82
2020-11-13 00:00:00 12.9 7 Nordeste 9 Norte 0 -- -- 84
2020-11-12 23:00:00 13.2 6 Nordeste 9 Norte 0 -- -- 82
2020-11-12 22:00:00 12.5 6 Norte 9 Norte 0 -- -- 86
2020-11-12 21:00:00 12.3 5 Norte 8 Norte 0 -- -- 87
2020-11-12 20:00:00 13.1 5 Norte 8 Nordeste 0 -- -- 83
2020-11-12 19:00:00 15.3 4 Norte 7 Nordeste 0 -- -- 73
2020-11-12 18:00:00 19.7 4 Este 15 Este 0 -- -- 57
2020-11-12 17:00:00 20.6 6 Este 18 Este 0 -- -- 57
2020-11-12 16:00:00 20.8 10 Sudeste 22 Este 0 -- -- 56
2020-11-12 15:00:00 21.3 11 Sudeste 24 Este 0 -- -- 54
2020-11-12 14:00:00 21.2 10 Este 22 Este 0 -- -- 54
2020-11-12 13:00:00 20.5 7 Este 22 Este 0 -- -- 60
2020-11-12 12:00:00 17.7 8 Este 27 Este 0 -- -- 69
2020-11-12 11:00:00 16.8 13 Nordeste 28 Nordeste 0 -- -- 70
2020-11-12 10:00:00 16.2 10 Nordeste 24 Este 0 -- -- 73
2020-11-12 09:00:00 14.4 8 Nordeste 16 Nordeste 0 -- -- 78
2020-11-12 08:00:00 14 7 Nordeste 18 Este 0 -- -- 80
2020-11-12 07:00:00 14.1 8 Nordeste 14 Nordeste 0 -- -- 80
2020-11-12 06:00:00 13.4 4 Este 14 Este 0 -- -- 83
2020-11-12 05:00:00 12.9 5 Nordeste 9 Norte 0 -- -- 84
2020-11-12 04:00:00 13.3 5 Norte 13 Nordeste 0 -- -- 83
2020-11-12 03:00:00 13.4 8 Norte 13 Nordeste 0 -- -- 83
2020-11-12 02:00:00 13.9 6 Norte 10 Nordeste 0 -- -- 81
2020-11-12 01:00:00 14.3 6 Norte 13 Nordeste 0 -- -- 79
2020-11-12 00:00:00 14.1 6 Nordeste 13 Nordeste 0 -- -- 80
2020-11-11 23:00:00 13.4 5 Nordeste 11 Nordeste 0 -- -- 83
2020-11-11 22:00:00 14.7 5 Norte 10 Norte 0 -- -- 79
2020-11-11 21:00:00 15.2 6 Norte 11 Norte 0 -- -- 77
2020-11-11 20:00:00 15.3 5 Norte 9 Norte 0 -- -- 76
2020-11-11 19:00:00 15.5 5 Norte 7 Norte 0 -- -- 75
2020-11-11 18:00:00 18.9 4 Nordeste 13 Nordeste 0 -- -- 62
2020-11-11 17:00:00 21 8 Este 16 Este 0 -- -- 55
2020-11-11 16:00:00 21 7 Este 13 Sudeste 0 -- -- 57
2020-11-11 15:00:00 21 6 Este 19 Este 0 -- -- 56
2020-11-11 14:00:00 20.6 9 Este 21 Este 0 -- -- 57
2020-11-11 13:00:00 20 9 Nordeste 24 Este 0 -- -- 64
2020-11-11 12:00:00 18.9 11 Este 26 Este 0 -- -- 68
2020-11-11 11:00:00 18.2 13 Este 24 Este 0 -- -- 71
2020-11-11 10:00:00 16.1 9 Este 22 Este 0 -- -- 78
2020-11-11 09:00:00 14 5 Nordeste 14 Este 0 -- -- 84
2020-11-11 08:00:00 13 5 Nordeste 13 Nordeste 0 -- -- 85
2020-11-11 07:00:00 12.7 6 Nordeste 12 Nordeste 0 -- -- 87
2020-11-11 06:00:00 11.3 3 Nordeste 10 Norte 0 -- -- 88
2020-11-11 05:00:00 12.1 6 Norte 9 Norte 0 -- -- 84
2020-11-11 04:00:00 12.9 6 Nordeste 9 Nordeste 0 -- -- 81
2020-11-11 03:00:00 13.5 6 Nordeste 12 Nordeste 0 -- -- 79
2020-11-11 02:00:00 13.1 6 Nordeste 11 Norte 0 -- -- 81
2020-11-11 01:00:00 13.9 7 Norte 11 Norte 0 -- -- 78
2020-11-11 00:00:00 13.5 7 Norte 10 Nordeste 0 -- -- 79
2020-11-10 23:00:00 13.8 7 Norte 12 Nordeste 0 -- -- 80
2020-11-10 22:00:00 12.5 6 Norte 9 Nordeste 0 -- -- 83
2020-11-10 21:00:00 13.8 6 Norte 9 Norte 0 -- -- 83
2020-11-10 20:00:00 14.1 5 Norte 9 Este 0 -- -- 81
2020-11-10 19:00:00 17 4 Este 8 Este 0 -- -- 72
2020-11-10 18:00:00 20.2 4 Este 15 Sudeste 0 -- -- 61
2020-11-10 17:00:00 21.6 6 Este 18 Este 0 -- -- 58
2020-11-10 16:00:00 22.1 8 Este 24 Este 0 -- -- 57
2020-11-10 15:00:00 21.8 9 Este 24 Sudeste 0 -- -- 59
2020-11-10 14:00:00 21.4 10 Sudeste 21 Sudeste 0 -- -- 59
2020-11-10 13:00:00 20.9 9 Sudeste 17 Sudeste 0 -- -- 61
2020-11-10 12:00:00 20.1 7 Este 15 Sudeste 0 -- -- 65
2020-11-10 11:00:00 18.2 5 Este 13 Este 0 -- -- 72
2020-11-10 10:00:00 15.7 5 Nordeste 14 Norte 0 -- -- 76
2020-11-10 09:00:00 13.3 6 Norte 13 Norte 0 -- -- 84
2020-11-10 08:00:00 12.4 6 Norte 12 Norte 0 -- -- 86
2020-11-10 07:00:00 12.4 4 Nordeste 10 Nordeste 0 -- -- 86
2020-11-10 06:00:00 12.9 5 Nordeste 12 Norte 0 -- -- 84
2020-11-10 05:00:00 13.2 8 Norte 15 Norte 0 -- -- 83
2020-11-10 04:00:00 13.3 8 Norte 15 Norte 0 -- -- 83
2020-11-10 03:00:00 13.1 6 Norte 11 Nordeste 0 -- -- 85
2020-11-10 02:00:00 12.5 6 Nordeste 10 Norte 0 -- -- 88
2020-11-10 01:00:00 10.1 5 Norte 8 Norte 0 -- -- 94
2020-11-10 00:00:00 10.2 4 Norte 5 Norte 0 -- -- 93
2020-11-09 23:00:00 10.7 2 Noroeste 5 Nordeste 0 -- -- 92
2020-11-09 22:00:00 11.9 0 Calma 5 Noroeste 0 -- -- 89
2020-11-09 21:00:00 13.7 3 Sur 9 Oeste 0 -- -- 84
2020-11-09 20:00:00 13.9 5 Oeste 10 Oeste 0 -- -- 84
2020-11-09 19:00:00 15.9 4 Noroeste 9 Oeste 0 -- -- 76
2020-11-09 18:00:00 20 5 Oeste 11 Oeste 0 -- -- 61
2020-11-09 17:00:00 20.6 6 Oeste 13 Oeste 0 -- -- 57
2020-11-09 16:00:00 19.4 7 Oeste 12 Noroeste 0 -- -- 64
2020-11-09 15:00:00 20.1 5 Sudoeste 11 Sur 0 -- -- 59
2020-11-09 14:00:00 18.9 5 Noroeste 9 Noroeste 0 -- -- 66
2020-11-09 13:00:00 18.6 5 Noroeste 10 Noroeste 0 -- -- 68
2020-11-09 12:00:00 17.6 0 Calma 10 Este 0 -- -- 84
2020-11-09 11:00:00 17.1 6 Nordeste 12 Norte 0 -- -- 83
2020-11-09 10:00:00 15.2 5 Norte 8 Norte 0 -- -- 96
2020-11-09 09:00:00 12.7 0 Calma 6 Nordeste 0 -- -- 97
2020-11-09 08:00:00 12.3 4 Norte 6 Norte 0.2 -- -- 96
2020-11-09 07:00:00 13.1 2 Noroeste 4 Noroeste 0 -- -- 95
2020-11-09 06:00:00 14.9 0 Calma 6 Norte 0 -- -- 95
2020-11-09 05:00:00 15.5 3 Norte 7 Norte 0.2 -- -- 96
2020-11-09 04:00:00 15.7 3 Sudoeste 9 Noroeste 2.8 -- -- 96
2020-11-09 03:00:00 16 4 Sur 12 Sudoeste 8.4 -- -- 95
2020-11-09 02:00:00 15.9 0 Calma 4 Sudeste 0.2 -- -- 95
2020-11-09 01:00:00 15.8 3 Este 6 Este 0.2 -- -- 94
2020-11-09 00:00:00 16 3 Este 9 Sur 0 -- -- 93
2020-11-08 23:00:00 15.8 2 Sudoeste 6 Sur 0.4 -- -- 93
2020-11-08 22:00:00 15.7 0 Calma 5 Este 0 -- -- 91
2020-11-08 21:00:00 15.8 2 Sudeste 6 Sudeste 0 -- -- 89
2020-11-08 20:00:00 16.7 4 Sudoeste 8 Sur 0 -- -- 85
2020-11-08 19:00:00 17.7 4 Sur 16 Sudoeste 0 -- -- 80
2020-11-08 18:00:00 18.5 6 Sudoeste 20 Sudoeste 0 -- -- 75
2020-11-08 17:00:00 19.6 7 Sur 23 Sudoeste 0 -- -- 71
2020-11-08 16:00:00 20.2 7 Sur 22 Sur 0 -- -- 70
2020-11-08 15:00:00 20.6 9 Sudoeste 24 Sur 0 -- -- 66
2020-11-08 14:00:00 20 10 Sur 21 Sur 0 -- -- 70
2020-11-08 13:00:00 18.9 6 Sudeste 19 Sudeste 0 -- -- 77
2020-11-08 12:00:00 18.6 9 Sudeste 20 Sudeste 0 -- -- 77
2020-11-08 11:00:00 17.4 9 Sudeste 17 Sudeste 0 -- -- 81
2020-11-08 10:00:00 15.2 8 Este 18 Este 0 -- -- 89
2020-11-08 09:00:00 13.9 6 Nordeste 12 Nordeste 0 -- -- 94
2020-11-08 08:00:00 13.4 6 Nordeste 13 Nordeste 0 -- -- 94
2020-11-08 07:00:00 13.5 6 Este 14 Este 0 -- -- 95
2020-11-08 06:00:00 13.6 5 Este 12 Este 0 -- -- 96
2020-11-08 05:00:00 12.9 6 Nordeste 10 Nordeste 0 -- -- 96
2020-11-08 04:00:00 12.4 5 Nordeste 10 Nordeste 0 -- -- 96
2020-11-08 03:00:00 12.9 4 Nordeste 8 Nordeste 0 -- -- 96
2020-11-08 02:00:00 12.2 5 Nordeste 10 Nordeste 0 -- -- 96
2020-11-08 01:00:00 12.8 3 Nordeste 5 Nordeste 0 -- -- 95
2020-11-08 00:00:00 13.5 3 Este 8 Este 0.2 -- -- 95
2020-11-07 23:00:00 12.5 2 Nordeste 5 Nordeste 0 -- -- 94
2020-11-07 22:00:00 12.3 3 Norte 5 Este 0 -- -- 93
2020-11-07 21:00:00 12.8 2 Nordeste 4 Nordeste 0 -- -- 90
2020-11-07 20:00:00 14.9 2 Sudeste 5 Sudeste 0 -- -- 86
2020-11-07 19:00:00 17.2 4 Sur 12 Sudoeste 0 -- -- 79
2020-11-07 18:00:00 18.6 8 Sudoeste 18 Sudoeste 0 -- -- 74
2020-11-07 17:00:00 19.3 7 Sur 23 Sudoeste 0 -- -- 65
2020-11-07 16:00:00 20.5 11 Sudoeste 24 Sudoeste 0 -- -- 58
2020-11-07 15:00:00 20.3 14 Sudoeste 31 Sudoeste 0 -- -- 62
2020-11-07 14:00:00 20.5 13 Sudoeste 27 Sur 0 -- -- 64
2020-11-07 13:00:00 19 12 Sudoeste 26 Sudoeste 0 -- -- 70
2020-11-07 12:00:00 17.9 9 Sudoeste 19 Oeste 0 -- -- 76
2020-11-07 11:00:00 15.6 6 Sudoeste 11 Sudoeste 0 -- -- 96
2020-11-07 10:00:00 13.8 2 Este 6 Este 0 -- -- 98
2020-11-07 09:00:00 12 0 Calma 6 Nordeste 0 -- -- 98
2020-11-07 08:00:00 10.6 3 Nordeste 6 Nordeste 0 -- -- 97
2020-11-07 07:00:00 11.4 4 Nordeste 6 Nordeste 0 -- -- 97
2020-11-07 06:00:00 12.6 0 Calma 10 Este 0.2 -- -- 97
2020-11-07 05:00:00 13 2 Este 14 Este 0 -- -- 97
2020-11-07 04:00:00 13.2 4 Este 9 Nordeste 1 -- -- 97
2020-11-07 03:00:00 13.1 6 Nordeste 17 Este 0.8 -- -- 97
2020-11-07 02:00:00 13.1 11 Este 19 Este 0.4 -- -- 97
2020-11-07 01:00:00 12.9 7 Este 12 Nordeste 0.8 -- -- 96
2020-11-07 00:00:00 13.3 4 Sur 22 Oeste 0.4 -- -- 95
2020-11-06 23:00:00 13.5 14 Sudoeste 73 Noroeste 8 -- -- 90
2020-11-06 22:00:00 15.5 7 Este 14 Este 0 -- -- 81
2020-11-06 21:00:00 15 6 Este 17 Este 0 -- -- 84
2020-11-06 20:00:00 14.7 4 Este 6 Este 0 -- -- 85
2020-11-06 19:00:00 15.4 3 Este 9 Este 0 -- -- 82
2020-11-06 18:00:00 16.1 5 Sur 19 Sudoeste 0 -- -- 78
2020-11-06 17:00:00 16.9 13 Oeste 36 Oeste 0 -- -- 72
2020-11-06 16:00:00 19.7 14 Sur 33 Sur 0 -- -- 73
2020-11-06 15:00:00 20.4 13 Sur 27 Sudeste 0 -- -- 70
2020-11-06 14:00:00 20.9 11 Sur 23 Sudeste 0 -- -- 70
2020-11-06 13:00:00 20 5 Sudeste 14 Sudeste 0 -- -- 74
2020-11-06 12:00:00 18.8 5 Sudeste 12 Sudeste 0 -- -- 73
2020-11-06 11:00:00 17.4 4 Nordeste 14 Este 0 -- -- 73
2020-11-06 10:00:00 16.4 7 Este 19 Este 0 -- -- 74
2020-11-06 09:00:00 16.4 9 Sudeste 27 Este 0 -- -- 72
2020-11-06 08:00:00 16.3 10 Este 23 Este 0 -- -- 70
2020-11-06 07:00:00 16.5 10 Este 23 Este 0.2 -- -- 71
2020-11-06 06:00:00 15.7 8 Nordeste 15 Nordeste 0 -- -- 80
2020-11-06 05:00:00 15.6 11 Nordeste 15 Nordeste 0 -- -- 83
2020-11-06 04:00:00 16.1 3 Este 15 Este 0 -- -- 78
2020-11-06 03:00:00 16 2 Norte 14 Este 0 -- -- 80
2020-11-06 02:00:00 15.7 5 Nordeste 13 Este 0 -- -- 81
2020-11-06 01:00:00 15.5 6 Este 11 Nordeste 0 -- -- 83
2020-11-06 00:00:00 15.4 5 Este 15 Nordeste 0 -- -- 84
2020-11-05 23:00:00 15.8 7 Este 17 Este 0 -- -- 83
2020-11-05 22:00:00 16 9 Este 20 Este 0 -- -- 84
2020-11-05 21:00:00 16 9 Este 30 Este 0 -- -- 86
2020-11-05 20:00:00 16.5 12 Este 31 Este 0 -- -- 86
2020-11-05 19:00:00 17.3 12 Este 29 Este 0 -- -- 85
2020-11-05 18:00:00 17.7 11 Este 31 Este 0 -- -- 80
2020-11-05 17:00:00 19.6 13 Este 31 Este 0 -- -- 74
2020-11-05 16:00:00 19.2 17 Este 33 Este 0 -- -- 75
2020-11-05 15:00:00 18.9 14 Este 34 Este 0 -- -- 75
2020-11-05 14:00:00 18 14 Este 27 Este 0 -- -- 81
2020-11-05 13:00:00 17.7 11 Sudeste 27 Este 0 -- -- 76
2020-11-05 12:00:00 17.1 15 Sudeste 30 Sudeste 0 -- -- 85
2020-11-05 11:00:00 15.5 13 Sudeste 25 Sudeste 0 -- -- 96
2020-11-05 10:00:00 14.7 10 Sudeste 23 Sudeste 0.2 -- -- 97
2020-11-05 09:00:00 14.3 13 Sudeste 27 Sudeste 0.8 -- -- 97
2020-11-05 08:00:00 13.7 9 Este 19 Este 1.2 -- -- 96
2020-11-05 07:00:00 13.2 7 Este 19 Este 1.4 -- -- 96
2020-11-05 06:00:00 13 9 Este 22 Norte 1.8 -- -- 96
2020-11-05 05:00:00 13.3 9 Este 24 Este 1.8 -- -- 95
2020-11-05 04:00:00 13.7 10 Este 23 Nordeste 6.8 -- -- 95
2020-11-05 03:00:00 14.1 8 Este 26 Este 3.6 -- -- 95
2020-11-05 02:00:00 14.4 11 Este 26 Norte 0.8 -- -- 92
2020-11-05 01:00:00 14.1 7 Nordeste 17 Este 2.4 -- -- 93
2020-11-05 00:00:00 14.1 7 Este 18 Este 4.2 -- -- 94
2020-11-04 23:00:00 14.5 6 Este 15 Este 0.2 -- -- 93
2020-11-04 22:00:00 14.2 7 Nordeste 31 Sudeste 3.8 -- -- 91
2020-11-04 21:00:00 16 7 Este 19 Este 0 -- -- 88
2020-11-04 20:00:00 15.6 5 Este 14 Este 0 -- -- 89
2020-11-04 19:00:00 16 4 Este 8 Este 0 -- -- 87
2020-11-04 18:00:00 16.7 3 Este 10 Sudeste 0 -- -- 84
2020-11-04 17:00:00 17 2 Sur 9 Sudoeste 0 -- -- 83
2020-11-04 16:00:00 16.7 5 Oeste 15 Oeste 0 -- -- 84
2020-11-04 15:00:00 16.3 9 Oeste 15 Sudoeste 0.4 -- -- 88
2020-11-04 14:00:00 15.4 4 Oeste 10 Oeste 0 -- -- 93
2020-11-04 13:00:00 15.5 4 Sudoeste 14 Sur 0.2 -- -- 94
2020-11-04 12:00:00 16 5 Sur 10 Sudoeste 0 -- -- 95
2020-11-04 11:00:00 15.8 3 Sur 7 Sur 0 -- -- 97
2020-11-04 10:00:00 15.2 0 Calma 5 Sudoeste 0 -- -- 98
2020-11-04 09:00:00 13.3 0 Calma 5 Noroeste 0 -- -- 97
2020-11-04 08:00:00 11.9 0 Calma 5 Sur 0 -- -- 97
2020-11-04 07:00:00 11.7 2 Este 4 Este 0 -- -- 96
2020-11-04 06:00:00 11.7 3 Norte 4 Norte 0 -- -- 96
2020-11-04 05:00:00 12.5 2 Norte 4 Norte 0 -- -- 96
2020-11-04 04:00:00 12.9 2 Norte 4 Noroeste 0 -- -- 95
2020-11-04 03:00:00 12.6 3 Norte -- -- 0 -- -- 95
2020-11-04 02:00:00 12.9 4 Norte 5 Norte 0 -- -- 94
2020-11-04 01:00:00 14 4 Norte 6 Norte 0 -- -- 93
2020-11-04 00:00:00 15.1 2 Este 10 Nordeste 0 -- -- 93
2020-11-03 23:00:00 15.6 3 Sudeste 10 Norte 0 -- -- 90
2020-11-03 22:00:00 15.9 4 Norte 8 Norte 0 -- -- 90
2020-11-03 21:00:00 17.4 2 Oeste 9 Norte 0 -- -- 89
2020-11-03 20:00:00 18.5 2 Noroeste 5 Norte 0 -- -- 90
2020-11-03 19:00:00 19.5 0 Calma 5 Este 0 -- -- 88
2020-11-03 18:00:00 20.6 0 Calma 6 Norte 0 -- -- 85
2020-11-03 17:00:00 20.5 0 Calma 4 Sur 0.2 -- -- 88
2020-11-03 16:00:00 19.9 4 Sur 9 Sur 0 -- -- 88
2020-11-03 15:00:00 21.1 3 Norte 9 Noroeste 0 -- -- 78
2020-11-03 14:00:00 19.8 6 Norte 10 Norte 0 -- -- 87
2020-11-03 13:00:00 18.4 3 Noroeste 9 Noroeste 0 -- -- 92
2020-11-03 12:00:00 17.4 4 Norte 12 Norte 0.8 -- -- 92
2020-11-03 11:00:00 17.6 5 Noroeste 13 Noroeste 0 -- -- 86
2020-11-03 10:00:00 16.9 6 Noroeste 9 Noroeste 0 -- -- 88
2020-11-03 09:00:00 15.9 2 Oeste 6 Sur 0 -- -- 89
2020-11-03 08:00:00 14.9 3 Norte 4 Norte 0 -- -- 92
2020-11-03 07:00:00 14.4 2 Noroeste 6 Noroeste 0 -- -- 92
2020-11-03 06:00:00 13.5 3 Norte 6 Norte 0 -- -- 92
2020-11-03 05:00:00 13.7 2 Norte 6 Este 0 -- -- 89
2020-11-03 04:00:00 15.1 2 Oeste 8 Oeste 0 -- -- 88
2020-11-03 03:00:00 14.1 3 Oeste 4 Oeste 0 -- -- 90
2020-11-03 02:00:00 13.6 0 Calma 4 Noroeste 0 -- -- 90
2020-11-03 01:00:00 14.7 3 Sudoeste 5 Sur 0 -- -- 85
2020-11-03 00:00:00 17 3 Sudoeste 9 Norte 0 -- -- 80
2020-11-02 23:00:00 17.8 5 Noroeste 16 Norte 0 -- -- 76
2020-11-02 22:00:00 19.1 10 Norte 18 Norte 0 -- -- 74
2020-11-02 21:00:00 19.2 10 Noroeste 17 Noroeste 0 -- -- 74
2020-11-02 20:00:00 20.2 9 Noroeste 17 Noroeste 0 -- -- 72
2020-11-02 19:00:00 21.8 7 Noroeste 18 Noroeste 0 -- -- 65
2020-11-02 18:00:00 25.4 11 Noroeste 23 Oeste 0 -- -- 50
2020-11-02 17:00:00 27.8 10 Sudoeste 17 Sudoeste 0 -- -- 36
2020-11-02 16:00:00 28.4 6 Sudoeste 18 Oeste 0 -- -- 37
2020-11-02 15:00:00 27.6 5 Sudoeste 13 Noroeste 0 -- -- 41
2020-11-02 14:00:00 26.9 5 Sur 15 Sur 0 -- -- 44
2020-11-02 13:00:00 26.1 7 Sur 17 Sur 0 -- -- 45
2020-11-02 12:00:00 24.7 8 Sudeste 13 Sudeste 0 -- -- 51
2020-11-02 11:00:00 22.6 4 Sudeste 9 Este 0 -- -- 56
2020-11-02 10:00:00 18.7 2 Oeste 4 Este 0 -- -- 70
2020-11-02 09:00:00 15 2 Este 11 Norte 0 -- -- 82
2020-11-02 08:00:00 12.6 6 Norte 12 Norte 0 -- -- 84
2020-11-02 07:00:00 15.1 8 Norte 12 Norte 0 -- -- 77
2020-11-02 06:00:00 14.5 8 Norte 12 Norte 0 -- -- 82
2020-11-02 05:00:00 17.3 8 Norte 15 Norte 0 -- -- 71
2020-11-02 04:00:00 17.8 9 Norte 15 Norte 0 -- -- 70
2020-11-02 03:00:00 16.8 8 Norte 13 Norte 0 -- -- 74
2020-11-02 02:00:00 17.2 8 Norte 14 Norte 0 -- -- 73
2020-11-02 01:00:00 18.1 8 Norte 14 Norte 0 -- -- 72
2020-11-02 00:00:00 17.1 8 Norte 13 Norte 0 -- -- 78
2020-11-01 23:00:00 14.4 4 Nordeste 7 Nordeste 0 -- -- 86
2020-11-01 22:00:00 14.7 4 Norte 8 Norte 0 -- -- 85
2020-11-01 21:00:00 15.5 4 Norte 7 Noroeste 0 -- -- 80
2020-11-01 20:00:00 17.1 5 Noroeste 7 Noroeste 0 -- -- 75
2020-11-01 19:00:00 20.9 4 Oeste 7 Oeste 0 -- -- 64
2020-11-01 18:00:00 24.1 5 Noroeste 17 Oeste 0 -- -- 55
2020-11-01 17:00:00 25.8 10 Oeste 16 Oeste 0 -- -- 47
2020-11-01 16:00:00 26 6 Sudoeste 12 Sudoeste 0 -- -- 46
2020-11-01 15:00:00 25.8 4 Sudoeste 11 Sur 0 -- -- 46
2020-11-01 14:00:00 25.5 4 Sur 11 Sudeste 0 -- -- 46
2020-11-01 13:00:00 24.8 5 Este 14 Sudeste 0 -- -- 50
2020-11-01 12:00:00 24 5 Sudeste 12 Sudeste 0 -- -- 54
2020-11-01 11:00:00 22 4 Sudoeste 6 Sur 0 -- -- 62
2020-11-01 10:00:00 18.6 2 Sudeste 4 Sudeste 0 -- -- 75
2020-11-01 09:00:00 13.2 3 Noroeste 4 Noroeste 0 -- -- 96
2020-11-01 08:00:00 10.9 2 Noroeste 8 Norte 0 -- -- 94
2020-11-01 07:00:00 11.2 4 Norte 9 Noroeste 0 -- -- 92
2020-11-01 06:00:00 11.1 5 Nordeste 9 Nordeste 0 -- -- 93
2020-11-01 05:00:00 11.5 4 Norte 5 Noroeste 0 -- -- 92
2020-11-01 04:00:00 12.1 3 Noroeste 8 Oeste 0 -- -- 90
2020-11-01 03:00:00 12.3 3 Noroeste 5 Este 0 -- -- 91
2020-11-01 02:00:00 13 2 Este 6 Norte 0 -- -- 87
2020-11-01 01:00:00 13.1 0 Calma 7 Oeste 0 -- -- 88
2020-11-01 00:00:00 13.2 0 Calma 4 Sudoeste 0 -- -- 87
2020-10-31 23:00:00 13.4 0 Calma 4 Noroeste 0 -- -- 86
2020-10-31 22:00:00 14 0 Calma 8 Nordeste 0 -- -- 84
2020-10-31 21:00:00 15.4 2 Norte 4 Noroeste 0 -- -- 78
2020-10-31 20:00:00 18.5 0 Calma 10 Oeste 0 -- -- 67
2020-10-31 19:00:00 20.8 5 Sudoeste 17 Oeste 0 -- -- 61
2020-10-31 18:00:00 25.7 5 Sur 11 Sudeste 0 -- -- 45
2020-10-31 17:00:00 26.7 8 Sudeste 15 Sur 0 -- -- 43
2020-10-31 16:00:00 26.8 5 Sur 15 Sur 0 -- -- 41
2020-10-31 15:00:00 26.2 6 Sur 15 Sudeste 0 -- -- 44
2020-10-31 14:00:00 25.2 8 Sur 14 Sudeste 0 -- -- 46
2020-10-31 13:00:00 23.8 6 Sur 13 Sur 0 -- -- 50
2020-10-31 12:00:00 22.4 5 Sudoeste 12 Sur 0 -- -- 54
2020-10-31 11:00:00 20.7 5 Sudeste 9 Sur 0 -- -- 59
2020-10-31 10:00:00 17.1 0 Calma 6 Oeste 0 -- -- 68
2020-10-31 09:00:00 11.7 3 Noroeste 4 Noroeste 0 -- -- 93
2020-10-31 08:00:00 10.4 0 Calma 6 Nordeste 0 -- -- 90
2020-10-31 07:00:00 10.9 5 Norte 11 Norte 0 -- -- 88
2020-10-31 06:00:00 10.7 5 Norte 9 Norte 0 -- -- 89
2020-10-31 05:00:00 11.4 4 Norte 8 Nordeste 0 -- -- 88
2020-10-31 04:00:00 12.1 4 Norte 9 Norte 0 -- -- 85
2020-10-31 03:00:00 13.2 5 Norte 11 Norte 0 -- -- 81
2020-10-31 02:00:00 14 7 Norte 12 Norte 0 -- -- 78
2020-10-31 01:00:00 12.2 6 Norte 9 Norte 0 -- -- 85
2020-10-31 00:00:00 13.1 3 Nordeste 5 Noroeste 0 -- -- 80
2020-10-30 23:00:00 13.7 6 Noroeste 8 Noroeste 0 -- -- 78
2020-10-30 22:00:00 14.2 4 Noroeste 4 Noroeste 0 -- -- 76
2020-10-30 21:00:00 15.5 4 Noroeste 7 Noroeste 0 -- -- 71
2020-10-30 20:00:00 17.3 5 Noroeste 6 Noroeste 0 -- -- 64
2020-10-30 19:00:00 21.8 2 Este 8 Este 0 -- -- 51
2020-10-30 18:00:00 25.2 6 Sudeste 14 Este 0 -- -- 42
2020-10-30 17:00:00 26.4 6 Sur 12 Sudoeste 0 -- -- 40
2020-10-30 16:00:00 27.1 5 Oeste 12 Oeste 0 -- -- 38
2020-10-30 15:00:00 25.9 3 Sudeste 13 Sudeste 0 -- -- 41
2020-10-30 14:00:00 25.2 8 Sudeste 17 Este 0 -- -- 43
2020-10-30 13:00:00 25.5 7 Sudeste 20 Este 0 -- -- 42
2020-10-30 12:00:00 24 9 Este 20 Este 0 -- -- 45
2020-10-30 11:00:00 22.3 10 Este 21 Este 0 -- -- 49
2020-10-30 10:00:00 20.1 7 Este 18 Este 0 -- -- 57
2020-10-30 09:00:00 17.4 6 Nordeste 15 Nordeste 0 -- -- 63
2020-10-30 08:00:00 16.4 7 Nordeste 16 Nordeste 0 -- -- 64
2020-10-30 07:00:00 15.8 7 Nordeste 16 Este 0 -- -- 67
2020-10-30 06:00:00 14 4 Nordeste 10 Nordeste 0 -- -- 74
2020-10-30 05:00:00 14.9 5 Nordeste 13 Nordeste 0 -- -- 70
2020-10-30 04:00:00 13.6 5 Nordeste 12 Norte 0 -- -- 76
2020-10-30 03:00:00 11.7 4 Nordeste 8 Nordeste 0 -- -- 83
2020-10-30 02:00:00 11.2 0 Calma 5 Norte 0 -- -- 84
2020-10-30 01:00:00 12 2 Norte 5 Noroeste 0 -- -- 81
2020-10-30 00:00:00 13.9 0 Calma 7 Norte 0 -- -- 73
2020-10-29 23:00:00 14.9 5 Norte 7 Nordeste 0 -- -- 69
2020-10-29 22:00:00 17.8 5 Norte 9 Nordeste 0 -- -- 58
2020-10-29 21:00:00 18.1 6 Norte 10 Norte 0 -- -- 58
2020-10-29 20:00:00 17.5 6 Norte 8 Norte 0 -- -- 61
2020-10-29 19:00:00 20.2 4 Norte 7 Nordeste 0 -- -- 53
2020-10-29 18:00:00 25.5 3 Este 19 Este 0 -- -- 40
2020-10-29 17:00:00 26.6 9 Este 23 Este 0 -- -- 38
2020-10-29 16:00:00 26.9 13 Este 26 Sudeste 0 -- -- 35
2020-10-29 15:00:00 26.7 12 Este 27 Sudeste 0 -- -- 38
2020-10-29 14:00:00 26.3 13 Este 30 Sudeste 0 -- -- 41
2020-10-29 13:00:00 25.4 10 Este 22 Sudeste 0 -- -- 49
2020-10-29 12:00:00 24 10 Sudeste 22 Este 0 -- -- 54
2020-10-29 11:00:00 22.3 9 Sudeste 18 Sudeste 0 -- -- 59
2020-10-29 10:00:00 19.2 6 Nordeste 15 Norte 0 -- -- 70
2020-10-29 09:00:00 17.2 6 Norte 12 Norte 0 -- -- 77
2020-10-29 08:00:00 15.5 8 Norte 14 Norte 0 -- -- 82
2020-10-29 07:00:00 15.5 7 Norte 13 Norte 0 -- -- 82
2020-10-29 06:00:00 15.2 8 Norte 13 Norte 0 -- -- 86
2020-10-29 05:00:00 14.3 7 Norte 11 Norte 0 -- -- 92
2020-10-29 04:00:00 13.5 3 Nordeste 6 Nordeste 0 -- -- 87
2020-10-29 03:00:00 16 6 Nordeste 14 Norte 0 -- -- 82
2020-10-29 02:00:00 15.9 9 Norte 14 Norte 0 -- -- 84
2020-10-29 01:00:00 13.2 3 Este 6 Este 0 -- -- 88
2020-10-29 00:00:00 15.1 2 Sur 8 Norte 0 -- -- 81
2020-10-28 23:00:00 16.1 6 Norte 12 Norte 0 -- -- 78
2020-10-28 22:00:00 15.6 6 Norte 9 Nordeste 0 -- -- 77
2020-10-28 21:00:00 14.4 5 Nordeste 8 Nordeste 0 -- -- 81
2020-10-28 20:00:00 16.5 0 Calma 5 Sudeste 0 -- -- 73
2020-10-28 19:00:00 19.3 0 Calma 6 Sudeste 0 -- -- 64
2020-10-28 18:00:00 22.2 4 Sur 13 Sur 0 -- -- 55
2020-10-28 17:00:00 22.6 6 Sur 14 Sur 0 -- -- 53
2020-10-28 16:00:00 22.4 8 Sur 16 Sur 0 -- -- 52
2020-10-28 15:00:00 22.5 4 Sudoeste 15 Oeste 0 -- -- 52
2020-10-28 14:00:00 20.6 5 Sudoeste 12 Sudeste 0 -- -- 56
2020-10-28 13:00:00 19.6 8 Sur 14 Sudeste 0 -- -- 59
2020-10-28 12:00:00 18.7 4 Oeste 11 Sur 0 -- -- 59
2020-10-28 11:00:00 15.6 0 Calma 5 Este 0 -- -- 71
2020-10-28 10:00:00 13.8 3 Sudeste 8 Nordeste 0 -- -- 77
2020-10-28 09:00:00 10.1 3 Nordeste 9 Nordeste 0 -- -- 95
2020-10-28 08:00:00 7.3 3 Nordeste 4 Este 0 -- -- 93
2020-10-28 07:00:00 7.5 2 Noroeste 4 Norte 0 -- -- 92
2020-10-28 06:00:00 7.8 3 Norte 5 Norte 0 -- -- 91
2020-10-28 05:00:00 8.9 0 Calma 9 Norte 0 -- -- 86
2020-10-28 04:00:00 10.3 2 Nordeste 9 Norte 0 -- -- 81
2020-10-28 03:00:00 11.6 7 Norte 10 Norte 0 -- -- 78
2020-10-28 02:00:00 11.3 4 Norte 9 Norte 0 -- -- 77
2020-10-28 01:00:00 12.8 6 Norte 12 Norte 0 -- -- 73
2020-10-28 00:00:00 12.6 6 Norte 11 Noroeste 0 -- -- 74